sensor_id;sensor_type;location;lat;lon;timestamp;temperature;humidity
52245;DHT22;55759;51.586;-1.758;2023-05-13T00:02:06;11.10;81.80
52245;DHT22;55759;51.586;-1.758;2023-05-13T00:04:32;11.10;81.80
52245;DHT22;55759;51.586;-1.758;2023-05-13T00:06:58;11.10;81.70
52245;DHT22;55759;51.586;-1.758;2023-05-13T00:09:24;11.10;81.50
52245;DHT22;55759;51.586;-1.758;2023-05-13T00:11:49;11.10;81.80
52245;DHT22;55759;51.586;-1.758;2023-05-13T00:14:15;11.10;82.00
52245;DHT22;55759;51.586;-1.758;2023-05-13T00:16:40;11.00;81.70
52245;DHT22;55759;51.586;-1.758;2023-05-13T00:19:07;11.00;81.70
52245;DHT22;55759;51.586;-1.758;2023-05-13T00:21:33;11.00;81.70
52245;DHT22;55759;51.586;-1.758;2023-05-13T00:23:59;10.90;82.00
52245;DHT22;55759;51.586;-1.758;2023-05-13T00:26:24;10.90;82.10
52245;DHT22;55759;51.586;-1.758;2023-05-13T00:28:50;10.90;82.50
52245;DHT22;55759;51.586;-1.758;2023-05-13T00:31:19;10.80;82.30
52245;DHT22;55759;51.586;-1.758;2023-05-13T00:33:51;10.80;82.40
52245;DHT22;55759;51.586;-1.758;2023-05-13T00:36:25;10.70;82.60
52245;DHT22;55759;51.586;-1.758;2023-05-13T00:38:51;10.70;83.00
52245;DHT22;55759;51.586;-1.758;2023-05-13T00:41:17;10.70;83.30
52245;DHT22;55759;51.586;-1.758;2023-05-13T00:43:43;10.70;83.40
52245;DHT22;55759;51.586;-1.758;2023-05-13T00:46:11;10.60;83.40
52245;DHT22;55759;51.586;-1.758;2023-05-13T00:48:39;10.60;83.30
52245;DHT22;55759;51.586;-1.758;2023-05-13T00:51:07;10.60;83.60
52245;DHT22;55759;51.586;-1.758;2023-05-13T00:53:32;10.60;83.50
52245;DHT22;55759;51.586;-1.758;2023-05-13T00:55:58;10.60;83.80
52245;DHT22;55759;51.586;-1.758;2023-05-13T00:58:24;10.60;84.10
52245;DHT22;55759;51.586;-1.758;2023-05-13T01:06:24;10.40;84.20
52245;DHT22;55759;51.586;-1.758;2023-05-13T01:11:23;10.40;84.40
52245;DHT22;55759;51.586;-1.758;2023-05-13T01:13:53;10.40;84.50
52245;DHT22;55759;51.586;-1.758;2023-05-13T01:17:06;10.30;85.00
52245;DHT22;55759;51.586;-1.758;2023-05-13T01:21:43;10.30;85.00
52245;DHT22;55759;51.586;-1.758;2023-05-13T01:24:15;10.30;85.00
52245;DHT22;55759;51.586;-1.758;2023-05-13T01:26:41;10.40;84.90
52245;DHT22;55759;51.586;-1.758;2023-05-13T01:29:06;10.30;85.00
52245;DHT22;55759;51.586;-1.758;2023-05-13T01:31:32;10.40;85.10
52245;DHT22;55759;51.586;-1.758;2023-05-13T01:33:58;10.30;85.10
52245;DHT22;55759;51.586;-1.758;2023-05-13T01:36:24;10.30;85.20
52245;DHT22;55759;51.586;-1.758;2023-05-13T01:38:50;10.40;85.00
52245;DHT22;55759;51.586;-1.758;2023-05-13T01:41:16;10.40;84.90
52245;DHT22;55759;51.586;-1.758;2023-05-13T01:43:42;10.40;84.80
52245;DHT22;55759;51.586;-1.758;2023-05-13T01:46:11;10.40;85.00
52245;DHT22;55759;51.586;-1.758;2023-05-13T01:48:37;10.40;84.80
52245;DHT22;55759;51.586;-1.758;2023-05-13T01:51:03;10.30;85.10
52245;DHT22;55759;51.586;-1.758;2023-05-13T01:53:31;10.40;85.30
52245;DHT22;55759;51.586;-1.758;2023-05-13T01:55:57;10.30;85.30
52245;DHT22;55759;51.586;-1.758;2023-05-13T01:58:29;10.40;85.40
52245;DHT22;55759;51.586;-1.758;2023-05-13T02:00:57;10.40;85.60
52245;DHT22;55759;51.586;-1.758;2023-05-13T02:03:31;10.30;85.10
52245;DHT22;55759;51.586;-1.758;2023-05-13T02:08:48;10.20;85.80
52245;DHT22;55759;51.586;-1.758;2023-05-13T02:11:13;10.20;85.90
52245;DHT22;55759;51.586;-1.758;2023-05-13T02:13:39;10.20;85.70
52245;DHT22;55759;51.586;-1.758;2023-05-13T02:16:04;10.20;86.10
52245;DHT22;55759;51.586;-1.758;2023-05-13T02:18:30;10.20;86.10
52245;DHT22;55759;51.586;-1.758;2023-05-13T02:20:56;10.20;86.20
52245;DHT22;55759;51.586;-1.758;2023-05-13T02:23:21;10.20;86.40
52245;DHT22;55759;51.586;-1.758;2023-05-13T02:25:47;10.20;86.40
52245;DHT22;55759;51.586;-1.758;2023-05-13T02:28:16;10.20;86.40
52245;DHT22;55759;51.586;-1.758;2023-05-13T02:30:41;10.20;86.40
52245;DHT22;55759;51.586;-1.758;2023-05-13T02:33:07;10.20;86.60
52245;DHT22;55759;51.586;-1.758;2023-05-13T02:35:33;10.20;86.30
52245;DHT22;55759;51.586;-1.758;2023-05-13T02:37:58;10.10;86.20
52245;DHT22;55759;51.586;-1.758;2023-05-13T02:40:24;10.20;86.30
52245;DHT22;55759;51.586;-1.758;2023-05-13T02:42:49;10.10;86.10
52245;DHT22;55759;51.586;-1.758;2023-05-13T02:45:15;10.20;86.20
52245;DHT22;55759;51.586;-1.758;2023-05-13T02:47:41;10.20;86.10
52245;DHT22;55759;51.586;-1.758;2023-05-13T02:50:06;10.20;85.90
52245;DHT22;55759;51.586;-1.758;2023-05-13T02:52:34;10.20;85.90
52245;DHT22;55759;51.586;-1.758;2023-05-13T02:55:00;10.20;85.90
52245;DHT22;55759;51.586;-1.758;2023-05-13T02:57:26;10.20;86.10
52245;DHT22;55759;51.586;-1.758;2023-05-13T02:59:52;10.20;85.60
52245;DHT22;55759;51.586;-1.758;2023-05-13T03:02:17;10.20;85.60
52245;DHT22;55759;51.586;-1.758;2023-05-13T03:04:43;10.20;85.40
52245;DHT22;55759;51.586;-1.758;2023-05-13T03:07:09;10.20;85.40
52245;DHT22;55759;51.586;-1.758;2023-05-13T03:09:34;10.20;85.20
52245;DHT22;55759;51.586;-1.758;2023-05-13T03:12:06;10.20;85.30
52245;DHT22;55759;51.586;-1.758;2023-05-13T03:14:32;10.20;84.90
52245;DHT22;55759;51.586;-1.758;2023-05-13T03:16:59;10.20;84.70
52245;DHT22;55759;51.586;-1.758;2023-05-13T03:19:25;10.20;84.50
52245;DHT22;55759;51.586;-1.758;2023-05-13T03:21:51;10.10;84.50
52245;DHT22;55759;51.586;-1.758;2023-05-13T03:24:17;10.10;84.30
52245;DHT22;55759;51.586;-1.758;2023-05-13T03:26:42;10.10;84.30
52245;DHT22;55759;51.586;-1.758;2023-05-13T03:29:08;10.10;84.50
52245;DHT22;55759;51.586;-1.758;2023-05-13T03:31:34;10.10;84.70
52245;DHT22;55759;51.586;-1.758;2023-05-13T03:34:00;10.00;84.80
52245;DHT22;55759;51.586;-1.758;2023-05-13T03:36:25;10.00;85.20
52245;DHT22;55759;51.586;-1.758;2023-05-13T03:38:51;9.90;85.10
52245;DHT22;55759;51.586;-1.758;2023-05-13T03:41:16;9.90;85.30
52245;DHT22;55759;51.586;-1.758;2023-05-13T03:43:42;9.90;86.00
52245;DHT22;55759;51.586;-1.758;2023-05-13T03:46:08;9.90;85.80
52245;DHT22;55759;51.586;-1.758;2023-05-13T03:48:34;9.90;85.70
52245;DHT22;55759;51.586;-1.758;2023-05-13T03:50:59;9.90;85.70
52245;DHT22;55759;51.586;-1.758;2023-05-13T03:53:25;9.90;85.60
52245;DHT22;55759;51.586;-1.758;2023-05-13T03:55:51;9.90;85.70
52245;DHT22;55759;51.586;-1.758;2023-05-13T03:58:16;9.80;85.70
52245;DHT22;55759;51.586;-1.758;2023-05-13T04:00:43;9.80;86.00
52245;DHT22;55759;51.586;-1.758;2023-05-13T04:03:12;9.80;85.90
52245;DHT22;55759;51.586;-1.758;2023-05-13T04:05:38;9.90;85.30
52245;DHT22;55759;51.586;-1.758;2023-05-13T04:08:04;9.90;85.50
52245;DHT22;55759;51.586;-1.758;2023-05-13T04:10:30;9.80;85.70
52245;DHT22;55759;51.586;-1.758;2023-05-13T04:12:55;9.80;85.80
52245;DHT22;55759;51.586;-1.758;2023-05-13T04:15:21;9.80;85.30
52245;DHT22;55759;51.586;-1.758;2023-05-13T04:17:47;9.80;85.20
52245;DHT22;55759;51.586;-1.758;2023-05-13T04:20:12;9.80;85.20
52245;DHT22;55759;51.586;-1.758;2023-05-13T04:22:38;9.80;85.40
52245;DHT22;55759;51.586;-1.758;2023-05-13T04:25:04;9.80;85.40
52245;DHT22;55759;51.586;-1.758;2023-05-13T04:27:29;9.80;85.30
52245;DHT22;55759;51.586;-1.758;2023-05-13T04:29:55;9.80;85.30
52245;DHT22;55759;51.586;-1.758;2023-05-13T04:32:21;9.80;85.60
52245;DHT22;55759;51.586;-1.758;2023-05-13T04:34:47;9.80;85.60
52245;DHT22;55759;51.586;-1.758;2023-05-13T04:37:12;9.80;85.50
52245;DHT22;55759;51.586;-1.758;2023-05-13T04:39:38;9.80;85.70
52245;DHT22;55759;51.586;-1.758;2023-05-13T04:42:03;9.80;85.40
52245;DHT22;55759;51.586;-1.758;2023-05-13T04:44:30;9.90;85.20
52245;DHT22;55759;51.586;-1.758;2023-05-13T04:46:56;9.90;85.30
52245;DHT22;55759;51.586;-1.758;2023-05-13T04:49:22;9.80;85.20
52245;DHT22;55759;51.586;-1.758;2023-05-13T04:51:47;9.80;85.10
52245;DHT22;55759;51.586;-1.758;2023-05-13T04:54:13;9.80;85.00
52245;DHT22;55759;51.586;-1.758;2023-05-13T04:56:38;9.70;85.40
52245;DHT22;55759;51.586;-1.758;2023-05-13T04:59:04;9.70;85.20
52245;DHT22;55759;51.586;-1.758;2023-05-13T05:01:29;9.70;85.30
52245;DHT22;55759;51.586;-1.758;2023-05-13T05:03:56;9.70;85.60
52245;DHT22;55759;51.586;-1.758;2023-05-13T05:06:22;9.70;85.00
52245;DHT22;55759;51.586;-1.758;2023-05-13T05:08:47;9.70;84.90
52245;DHT22;55759;51.586;-1.758;2023-05-13T05:11:13;9.80;85.30
52245;DHT22;55759;51.586;-1.758;2023-05-13T05:13:38;9.80;85.20
52245;DHT22;55759;51.586;-1.758;2023-05-13T05:16:04;9.70;85.30
52245;DHT22;55759;51.586;-1.758;2023-05-13T05:18:30;9.70;85.90
52245;DHT22;55759;51.586;-1.758;2023-05-13T05:20:55;9.70;85.60
52245;DHT22;55759;51.586;-1.758;2023-05-13T05:23:21;9.70;85.50
52245;DHT22;55759;51.586;-1.758;2023-05-13T05:25:46;9.80;85.30
52245;DHT22;55759;51.586;-1.758;2023-05-13T05:28:12;9.80;84.70
52245;DHT22;55759;51.586;-1.758;2023-05-13T05:30:37;9.80;84.90
52245;DHT22;55759;51.586;-1.758;2023-05-13T05:33:04;9.80;84.70
52245;DHT22;55759;51.586;-1.758;2023-05-13T05:35:30;9.90;84.20
52245;DHT22;55759;51.586;-1.758;2023-05-13T05:37:57;10.00;83.90
52245;DHT22;55759;51.586;-1.758;2023-05-13T05:40:23;10.00;84.20
52245;DHT22;55759;51.586;-1.758;2023-05-13T05:42:49;10.10;83.50
52245;DHT22;55759;51.586;-1.758;2023-05-13T05:45:14;10.10;83.00
52245;DHT22;55759;51.586;-1.758;2023-05-13T05:47:40;10.10;83.10
52245;DHT22;55759;51.586;-1.758;2023-05-13T05:50:05;10.10;83.20
52245;DHT22;55759;51.586;-1.758;2023-05-13T05:52:31;10.10;82.90
52245;DHT22;55759;51.586;-1.758;2023-05-13T05:54:57;10.10;82.90
52245;DHT22;55759;51.586;-1.758;2023-05-13T05:57:22;10.10;82.80
52245;DHT22;55759;51.586;-1.758;2023-05-13T05:59:48;10.20;83.10
52245;DHT22;55759;51.586;-1.758;2023-05-13T06:02:13;10.20;82.40
52245;DHT22;55759;51.586;-1.758;2023-05-13T06:04:39;10.20;82.60
52245;DHT22;55759;51.586;-1.758;2023-05-13T06:07:05;10.20;82.20
52245;DHT22;55759;51.586;-1.758;2023-05-13T06:09:32;10.20;82.50
52245;DHT22;55759;51.586;-1.758;2023-05-13T06:11:57;10.20;82.10
52245;DHT22;55759;51.586;-1.758;2023-05-13T06:14:23;10.20;82.10
52245;DHT22;55759;51.586;-1.758;2023-05-13T06:16:48;10.10;82.10
52245;DHT22;55759;51.586;-1.758;2023-05-13T06:19:14;10.20;82.20
52245;DHT22;55759;51.586;-1.758;2023-05-13T06:21:40;10.20;82.30
52245;DHT22;55759;51.586;-1.758;2023-05-13T06:24:07;10.30;82.30
52245;DHT22;55759;51.586;-1.758;2023-05-13T06:26:33;10.30;82.30
52245;DHT22;55759;51.586;-1.758;2023-05-13T06:28:59;10.40;82.50
52245;DHT22;55759;51.586;-1.758;2023-05-13T06:31:24;10.40;82.20
52245;DHT22;55759;51.586;-1.758;2023-05-13T06:33:50;10.40;82.00
52245;DHT22;55759;51.586;-1.758;2023-05-13T06:36:16;10.30;82.10
52245;DHT22;55759;51.586;-1.758;2023-05-13T06:38:42;10.40;82.10
52245;DHT22;55759;51.586;-1.758;2023-05-13T06:41:07;10.50;82.30
52245;DHT22;55759;51.586;-1.758;2023-05-13T06:43:33;10.50;82.40
52245;DHT22;55759;51.586;-1.758;2023-05-13T06:45:58;10.70;81.80
52245;DHT22;55759;51.586;-1.758;2023-05-13T06:48:24;10.70;81.70
52245;DHT22;55759;51.586;-1.758;2023-05-13T06:50:50;10.80;81.20
52245;DHT22;55759;51.586;-1.758;2023-05-13T06:53:15;10.80;80.50
52245;DHT22;55759;51.586;-1.758;2023-05-13T06:55:41;10.80;81.00
52245;DHT22;55759;51.586;-1.758;2023-05-13T06:58:07;10.80;80.80
52245;DHT22;55759;51.586;-1.758;2023-05-13T07:00:36;10.90;80.20
52245;DHT22;55759;51.586;-1.758;2023-05-13T07:03:03;10.90;80.10
52245;DHT22;55759;51.586;-1.758;2023-05-13T07:05:29;10.90;80.00
52245;DHT22;55759;51.586;-1.758;2023-05-13T07:07:55;10.90;80.40
52245;DHT22;55759;51.586;-1.758;2023-05-13T07:10:20;11.00;79.80
52245;DHT22;55759;51.586;-1.758;2023-05-13T07:12:46;11.10;79.50
52245;DHT22;55759;51.586;-1.758;2023-05-13T07:15:11;11.10;79.10
52245;DHT22;55759;51.586;-1.758;2023-05-13T07:17:37;11.10;79.10
52245;DHT22;55759;51.586;-1.758;2023-05-13T07:20:02;11.00;79.00
52245;DHT22;55759;51.586;-1.758;2023-05-13T07:22:28;11.10;79.50
52245;DHT22;55759;51.586;-1.758;2023-05-13T07:24:54;11.10;79.60
52245;DHT22;55759;51.586;-1.758;2023-05-13T07:27:20;11.20;79.10
52245;DHT22;55759;51.586;-1.758;2023-05-13T07:29:46;11.20;78.70
52245;DHT22;55759;51.586;-1.758;2023-05-13T07:32:11;11.40;78.90
52245;DHT22;55759;51.586;-1.758;2023-05-13T07:34:37;11.50;78.90
52245;DHT22;55759;51.586;-1.758;2023-05-13T07:37:02;11.50;77.90
52245;DHT22;55759;51.586;-1.758;2023-05-13T07:39:29;11.60;77.80
52245;DHT22;55759;51.586;-1.758;2023-05-13T07:41:54;11.50;77.80
52245;DHT22;55759;51.586;-1.758;2023-05-13T07:44:20;11.40;77.70
52245;DHT22;55759;51.586;-1.758;2023-05-13T07:46:46;11.10;77.90
52245;DHT22;55759;51.586;-1.758;2023-05-13T07:49:12;11.10;78.30
52245;DHT22;55759;51.586;-1.758;2023-05-13T07:51:38;11.20;78.60
52245;DHT22;55759;51.586;-1.758;2023-05-13T07:54:03;11.20;78.90
52245;DHT22;55759;51.586;-1.758;2023-05-13T07:56:29;11.40;77.90
52245;DHT22;55759;51.586;-1.758;2023-05-13T07:58:55;11.40;77.40
52245;DHT22;55759;51.586;-1.758;2023-05-13T08:01:20;11.40;78.00
52245;DHT22;55759;51.586;-1.758;2023-05-13T08:03:46;11.60;78.00
52245;DHT22;55759;51.586;-1.758;2023-05-13T08:06:11;11.70;77.60
52245;DHT22;55759;51.586;-1.758;2023-05-13T08:08:37;11.80;78.00
52245;DHT22;55759;51.586;-1.758;2023-05-13T08:11:02;11.90;77.70
52245;DHT22;55759;51.586;-1.758;2023-05-13T08:13:28;11.90;77.70
52245;DHT22;55759;51.586;-1.758;2023-05-13T08:15:54;12.00;77.40
52245;DHT22;55759;51.586;-1.758;2023-05-13T08:18:19;12.10;76.60
52245;DHT22;55759;51.586;-1.758;2023-05-13T08:20:45;12.10;75.90
52245;DHT22;55759;51.586;-1.758;2023-05-13T08:23:10;12.10;76.30
52245;DHT22;55759;51.586;-1.758;2023-05-13T08:25:36;12.20;76.70
52245;DHT22;55759;51.586;-1.758;2023-05-13T08:28:02;12.10;76.70
52245;DHT22;55759;51.586;-1.758;2023-05-13T08:30:28;12.10;76.80
52245;DHT22;55759;51.586;-1.758;2023-05-13T08:32:53;12.10;77.20
52245;DHT22;55759;51.586;-1.758;2023-05-13T08:35:19;12.30;76.50
52245;DHT22;55759;51.586;-1.758;2023-05-13T08:37:44;12.30;76.70
52245;DHT22;55759;51.586;-1.758;2023-05-13T08:40:10;12.30;75.40
52245;DHT22;55759;51.586;-1.758;2023-05-13T08:42:39;12.40;76.20
52245;DHT22;55759;51.586;-1.758;2023-05-13T08:45:06;12.50;75.90
52245;DHT22;55759;51.586;-1.758;2023-05-13T08:47:42;12.60;75.90
52245;DHT22;55759;51.586;-1.758;2023-05-13T08:50:11;12.70;74.60
52245;DHT22;55759;51.586;-1.758;2023-05-13T08:52:36;12.80;74.20
52245;DHT22;55759;51.586;-1.758;2023-05-13T08:55:02;13.10;73.60
52245;DHT22;55759;51.586;-1.758;2023-05-13T08:57:29;13.30;72.50
52245;DHT22;55759;51.586;-1.758;2023-05-13T08:59:55;13.80;72.00
52245;DHT22;55759;51.586;-1.758;2023-05-13T09:02:21;13.90;70.10
52245;DHT22;55759;51.586;-1.758;2023-05-13T09:04:47;14.00;69.70
52245;DHT22;55759;51.586;-1.758;2023-05-13T09:07:15;13.90;69.30
52245;DHT22;55759;51.586;-1.758;2023-05-13T09:09:41;13.80;69.30
52245;DHT22;55759;51.586;-1.758;2023-05-13T09:12:07;14.00;70.00
52245;DHT22;55759;51.586;-1.758;2023-05-13T09:14:33;14.20;68.80
52245;DHT22;55759;51.586;-1.758;2023-05-13T09:17:01;14.30;68.10
52245;DHT22;55759;51.586;-1.758;2023-05-13T09:19:27;14.10;68.80
52245;DHT22;55759;51.586;-1.758;2023-05-13T09:21:53;14.10;69.10
52245;DHT22;55759;51.586;-1.758;2023-05-13T09:24:19;14.00;69.70
52245;DHT22;55759;51.586;-1.758;2023-05-13T09:26:46;13.90;69.70
52245;DHT22;55759;51.586;-1.758;2023-05-13T09:31:49;13.70;70.60
52245;DHT22;55759;51.586;-1.758;2023-05-13T09:34:28;13.60;71.10
52245;DHT22;55759;51.586;-1.758;2023-05-13T09:36:54;13.50;70.60
52245;DHT22;55759;51.586;-1.758;2023-05-13T09:39:20;13.40;71.00
52245;DHT22;55759;51.586;-1.758;2023-05-13T09:41:46;13.30;71.20
52245;DHT22;55759;51.586;-1.758;2023-05-13T09:44:12;13.20;71.30
52245;DHT22;55759;51.586;-1.758;2023-05-13T09:46:37;13.10;71.60
52245;DHT22;55759;51.586;-1.758;2023-05-13T09:49:03;13.20;72.10
52245;DHT22;55759;51.586;-1.758;2023-05-13T09:51:28;13.20;72.50
52245;DHT22;55759;51.586;-1.758;2023-05-13T09:54:01;13.20;72.50
52245;DHT22;55759;51.586;-1.758;2023-05-13T09:56:27;13.20;72.20
52245;DHT22;55759;51.586;-1.758;2023-05-13T09:58:55;13.30;71.90
52245;DHT22;55759;51.586;-1.758;2023-05-13T10:01:20;13.40;71.70
52245;DHT22;55759;51.586;-1.758;2023-05-13T10:03:46;13.60;71.50
52245;DHT22;55759;51.586;-1.758;2023-05-13T10:06:16;13.70;72.70
52245;DHT22;55759;51.586;-1.758;2023-05-13T10:08:43;13.80;72.20
52245;DHT22;55759;51.586;-1.758;2023-05-13T10:11:10;14.10;70.70
52245;DHT22;55759;51.586;-1.758;2023-05-13T10:13:36;14.50;70.50
52245;DHT22;55759;51.586;-1.758;2023-05-13T10:16:02;14.80;67.10
52245;DHT22;55759;51.586;-1.758;2023-05-13T10:18:28;14.80;67.40
52245;DHT22;55759;51.586;-1.758;2023-05-13T10:20:54;14.90;66.50
52245;DHT22;55759;51.586;-1.758;2023-05-13T10:23:21;14.80;66.00
52245;DHT22;55759;51.586;-1.758;2023-05-13T10:25:49;14.60;66.60
52245;DHT22;55759;51.586;-1.758;2023-05-13T10:28:14;14.70;66.80
52245;DHT22;55759;51.586;-1.758;2023-05-13T10:30:41;14.70;66.70
52245;DHT22;55759;51.586;-1.758;2023-05-13T10:33:06;14.80;67.30
52245;DHT22;55759;51.586;-1.758;2023-05-13T10:35:33;14.90;66.50
52245;DHT22;55759;51.586;-1.758;2023-05-13T10:43:15;15.00;66.00
52245;DHT22;55759;51.586;-1.758;2023-05-13T10:45:49;15.20;65.60
52245;DHT22;55759;51.586;-1.758;2023-05-13T10:48:15;15.40;64.70
52245;DHT22;55759;51.586;-1.758;2023-05-13T10:50:57;15.40;64.20
52245;DHT22;55759;51.586;-1.758;2023-05-13T10:53:27;15.40;63.60
52245;DHT22;55759;51.586;-1.758;2023-05-13T10:55:57;15.30;64.50
52245;DHT22;55759;51.586;-1.758;2023-05-13T10:58:33;15.30;63.80
52245;DHT22;55759;51.586;-1.758;2023-05-13T11:01:15;15.10;64.90
52245;DHT22;55759;51.586;-1.758;2023-05-13T11:03:49;15.20;65.30
52245;DHT22;55759;51.586;-1.758;2023-05-13T11:06:16;15.20;64.80
52245;DHT22;55759;51.586;-1.758;2023-05-13T11:08:42;15.40;65.00
52245;DHT22;55759;51.586;-1.758;2023-05-13T11:13:54;15.40;64.10
52245;DHT22;55759;51.586;-1.758;2023-05-13T11:16:20;15.40;63.90
52245;DHT22;55759;51.586;-1.758;2023-05-13T11:18:47;15.60;65.30
52245;DHT22;55759;51.586;-1.758;2023-05-13T11:21:13;15.80;64.10
52245;DHT22;55759;51.586;-1.758;2023-05-13T11:23:58;15.70;64.30
52245;DHT22;55759;51.586;-1.758;2023-05-13T11:26:25;15.40;63.90
52245;DHT22;55759;51.586;-1.758;2023-05-13T11:31:23;15.80;64.50
52245;DHT22;55759;51.586;-1.758;2023-05-13T11:34:06;16.00;63.10
52245;DHT22;55759;51.586;-1.758;2023-05-13T11:36:38;16.10;63.00
52245;DHT22;55759;51.586;-1.758;2023-05-13T11:39:09;16.30;62.80
52245;DHT22;55759;51.586;-1.758;2023-05-13T11:41:39;16.50;62.10
52245;DHT22;55759;51.586;-1.758;2023-05-13T11:44:05;16.50;62.00
52245;DHT22;55759;51.586;-1.758;2023-05-13T11:46:31;16.60;61.40
52245;DHT22;55759;51.586;-1.758;2023-05-13T11:48:57;16.70;62.60
52245;DHT22;55759;51.586;-1.758;2023-05-13T11:51:22;16.80;60.50
52245;DHT22;55759;51.586;-1.758;2023-05-13T11:53:50;16.90;59.60
52245;DHT22;55759;51.586;-1.758;2023-05-13T11:56:17;16.80;59.90
52245;DHT22;55759;51.586;-1.758;2023-05-13T11:58:43;16.60;60.30
52245;DHT22;55759;51.586;-1.758;2023-05-13T12:01:14;16.50;61.20
52245;DHT22;55759;51.586;-1.758;2023-05-13T12:03:40;16.60;62.30
52245;DHT22;55759;51.586;-1.758;2023-05-13T12:06:06;17.00;61.20
52245;DHT22;55759;51.586;-1.758;2023-05-13T12:08:31;17.30;59.60
52245;DHT22;55759;51.586;-1.758;2023-05-13T12:10:58;17.30;58.60
52245;DHT22;55759;51.586;-1.758;2023-05-13T12:13:24;17.30;59.30
52245;DHT22;55759;51.586;-1.758;2023-05-13T12:15:50;17.20;58.50
52245;DHT22;55759;51.586;-1.758;2023-05-13T12:18:15;17.10;59.30
52245;DHT22;55759;51.586;-1.758;2023-05-13T12:20:41;17.20;59.60
52245;DHT22;55759;51.586;-1.758;2023-05-13T12:23:08;17.30;59.30
52245;DHT22;55759;51.586;-1.758;2023-05-13T12:25:36;17.40;60.20
52245;DHT22;55759;51.586;-1.758;2023-05-13T12:28:21;17.70;58.80
52245;DHT22;55759;51.586;-1.758;2023-05-13T12:33:31;18.00;57.90
52245;DHT22;55759;51.586;-1.758;2023-05-13T12:36:20;18.40;57.30
52245;DHT22;55759;51.586;-1.758;2023-05-13T12:38:57;18.70;57.40
52245;DHT22;55759;51.586;-1.758;2023-05-13T12:41:24;19.00;55.50
52245;DHT22;55759;51.586;-1.758;2023-05-13T12:44:12;18.80;54.50
52245;DHT22;55759;51.586;-1.758;2023-05-13T12:46:36;18.70;55.60
52245;DHT22;55759;51.586;-1.758;2023-05-13T12:49:02;18.90;54.90
52245;DHT22;55759;51.586;-1.758;2023-05-13T12:51:28;19.10;54.80
52245;DHT22;55759;51.586;-1.758;2023-05-13T12:53:54;18.90;54.60
52245;DHT22;55759;51.586;-1.758;2023-05-13T12:56:20;18.70;54.80
52245;DHT22;55759;51.586;-1.758;2023-05-13T12:58:47;18.80;55.90
52245;DHT22;55759;51.586;-1.758;2023-05-13T13:01:13;18.70;55.10
52245;DHT22;55759;51.586;-1.758;2023-05-13T13:03:38;18.70;55.70
52245;DHT22;55759;51.586;-1.758;2023-05-13T13:06:04;18.70;54.70
52245;DHT22;55759;51.586;-1.758;2023-05-13T13:08:29;18.60;56.80
52245;DHT22;55759;51.586;-1.758;2023-05-13T13:10:55;18.60;58.00
52245;DHT22;55759;51.586;-1.758;2023-05-13T13:13:21;18.60;60.50
52245;DHT22;55759;51.586;-1.758;2023-05-13T13:15:46;18.90;58.00
52245;DHT22;55759;51.586;-1.758;2023-05-13T13:18:12;19.00;57.30
52245;DHT22;55759;51.586;-1.758;2023-05-13T13:20:38;19.00;56.60
52245;DHT22;55759;51.586;-1.758;2023-05-13T13:23:03;19.20;56.50
52245;DHT22;55759;51.586;-1.758;2023-05-13T13:25:29;19.20;55.20
52245;DHT22;55759;51.586;-1.758;2023-05-13T13:27:55;19.30;55.40
52245;DHT22;55759;51.586;-1.758;2023-05-13T13:30:20;19.10;55.80
52245;DHT22;55759;51.586;-1.758;2023-05-13T13:32:46;19.40;55.50
52245;DHT22;55759;51.586;-1.758;2023-05-13T13:35:12;19.90;53.40
52245;DHT22;55759;51.586;-1.758;2023-05-13T13:37:37;19.90;52.70
52245;DHT22;55759;51.586;-1.758;2023-05-13T13:40:03;20.30;56.60
52245;DHT22;55759;51.586;-1.758;2023-05-13T13:42:29;21.30;50.80
52245;DHT22;55759;51.586;-1.758;2023-05-13T13:44:54;21.10;51.50
52245;DHT22;55759;51.586;-1.758;2023-05-13T13:47:20;21.20;51.80
52245;DHT22;55759;51.586;-1.758;2023-05-13T13:49:46;21.40;50.00
52245;DHT22;55759;51.586;-1.758;2023-05-13T13:52:12;21.30;51.10
52245;DHT22;55759;51.586;-1.758;2023-05-13T13:54:38;21.10;49.70
52245;DHT22;55759;51.586;-1.758;2023-05-13T13:57:04;21.10;50.70
52245;DHT22;55759;51.586;-1.758;2023-05-13T13:59:29;21.60;49.20
52245;DHT22;55759;51.586;-1.758;2023-05-13T14:01:55;21.70;49.60
52245;DHT22;55759;51.586;-1.758;2023-05-13T14:04:21;21.40;48.60
52245;DHT22;55759;51.586;-1.758;2023-05-13T14:20:00;25.50;41.10
52245;DHT22;55759;51.586;-1.758;2023-05-13T14:29:06;23.70;44.40
52245;DHT22;55759;51.586;-1.758;2023-05-13T15:02:22;31.00;34.90
52245;DHT22;55759;51.586;-1.758;2023-05-13T15:19:30;31.00;35.70
52245;DHT22;55759;51.586;-1.758;2023-05-13T15:24:50;29.10;38.30
52245;DHT22;55759;51.586;-1.758;2023-05-13T15:27:35;29.40;40.50
52245;DHT22;55759;51.586;-1.758;2023-05-13T15:30:01;28.30;36.00
52245;DHT22;55759;51.586;-1.758;2023-05-13T15:35:24;31.90;35.40
52245;DHT22;55759;51.586;-1.758;2023-05-13T15:50:34;36.00;30.80
52245;DHT22;55759;51.586;-1.758;2023-05-13T15:53:35;36.00;30.40
52245;DHT22;55759;51.586;-1.758;2023-05-13T16:05:29;34.80;28.50
52245;DHT22;55759;51.586;-1.758;2023-05-13T16:11:11;30.70;37.20
52245;DHT22;55759;51.586;-1.758;2023-05-13T16:16:40;33.50;31.90
52245;DHT22;55759;51.586;-1.758;2023-05-13T16:25:12;31.10;38.20
52245;DHT22;55759;51.586;-1.758;2023-05-13T16:27:37;30.20;36.00
52245;DHT22;55759;51.586;-1.758;2023-05-13T16:30:04;29.60;39.40
52245;DHT22;55759;51.586;-1.758;2023-05-13T16:32:42;30.60;40.30
52245;DHT22;55759;51.586;-1.758;2023-05-13T16:35:28;32.00;38.60
52245;DHT22;55759;51.586;-1.758;2023-05-13T16:38:23;33.00;35.70
52245;DHT22;55759;51.586;-1.758;2023-05-13T16:44:21;34.70;32.80
52245;DHT22;55759;51.586;-1.758;2023-05-13T16:46:56;33.40;34.20
52245;DHT22;55759;51.586;-1.758;2023-05-13T16:49:37;32.40;35.50
52245;DHT22;55759;51.586;-1.758;2023-05-13T16:52:12;32.10;34.70
52245;DHT22;55759;51.586;-1.758;2023-05-13T16:57:47;31.10;38.20
52245;DHT22;55759;51.586;-1.758;2023-05-13T17:00:15;30.60;41.10
52245;DHT22;55759;51.586;-1.758;2023-05-13T17:02:50;31.30;40.40
52245;DHT22;55759;51.586;-1.758;2023-05-13T17:05:28;31.30;38.90
52245;DHT22;55759;51.586;-1.758;2023-05-13T17:08:16;31.50;34.80
52245;DHT22;55759;51.586;-1.758;2023-05-13T17:23:49;31.80;33.90
52245;DHT22;55759;51.586;-1.758;2023-05-13T17:26:15;30.00;36.40
52245;DHT22;55759;51.586;-1.758;2023-05-13T17:28:41;29.00;42.20
52245;DHT22;55759;51.586;-1.758;2023-05-13T17:31:09;28.90;44.00
52245;DHT22;55759;51.586;-1.758;2023-05-13T17:33:35;29.40;36.20
52245;DHT22;55759;51.586;-1.758;2023-05-13T17:36:01;29.40;37.60
52245;DHT22;55759;51.586;-1.758;2023-05-13T17:38:27;29.40;42.30
52245;DHT22;55759;51.586;-1.758;2023-05-13T17:40:52;29.80;41.40
52245;DHT22;55759;51.586;-1.758;2023-05-13T17:43:18;29.90;42.30
52245;DHT22;55759;51.586;-1.758;2023-05-13T17:45:43;29.90;38.80
52245;DHT22;55759;51.586;-1.758;2023-05-13T17:48:09;29.50;41.10
52245;DHT22;55759;51.586;-1.758;2023-05-13T17:50:38;29.40;42.40
52245;DHT22;55759;51.586;-1.758;2023-05-13T17:53:03;29.30;41.50